sensor_id;sensor_type;location;lat;lon;timestamp;P1;durP1;ratioP1;P2;durP2;ratioP2
65187;SDS011;51775;51.148;6.950;2023-07-24T00:01:41;1.42;;;0.90;;
65187;SDS011;51775;51.148;6.950;2023-07-24T00:04:06;1.35;;;0.90;;
65187;SDS011;51775;51.148;6.950;2023-07-24T00:06:31;1.52;;;0.90;;
65187;SDS011;51775;51.148;6.950;2023-07-24T00:08:57;1.33;;;0.80;;
65187;SDS011;51775;51.148;6.950;2023-07-24T00:11:22;1.10;;;0.80;;
65187;SDS011;51775;51.148;6.950;2023-07-24T00:13:47;1.50;;;0.95;;
65187;SDS011;51775;51.148;6.950;2023-07-24T00:16:12;1.65;;;0.95;;
65187;SDS011;51775;51.148;6.950;2023-07-24T00:18:38;1.20;;;0.82;;
65187;SDS011;51775;51.148;6.950;2023-07-24T00:21:03;1.33;;;0.90;;
65187;SDS011;51775;51.148;6.950;2023-07-24T00:23:28;1.45;;;0.90;;
65187;SDS011;51775;51.148;6.950;2023-07-24T00:25:53;1.27;;;0.90;;
65187;SDS011;51775;51.148;6.950;2023-07-24T00:28:19;1.50;;;0.82;;
65187;SDS011;51775;51.148;6.950;2023-07-24T00:30:44;1.35;;;0.90;;
65187;SDS011;51775;51.148;6.950;2023-07-24T00:33:09;1.73;;;0.90;;
65187;SDS011;51775;51.148;6.950;2023-07-24T00:35:35;1.20;;;0.80;;
65187;SDS011;51775;51.148;6.950;2023-07-24T00:38:00;1.45;;;0.82;;
65187;SDS011;51775;51.148;6.950;2023-07-24T00:40:25;1.58;;;1.00;;
65187;SDS011;51775;51.148;6.950;2023-07-24T00:42:51;1.30;;;0.80;;
65187;SDS011;51775;51.148;6.950;2023-07-24T00:45:16;1.10;;;0.80;;
65187;SDS011;51775;51.148;6.950;2023-07-24T00:47:42;1.27;;;0.90;;
65187;SDS011;51775;51.148;6.950;2023-07-24T00:50:08;1.33;;;0.90;;
65187;SDS011;51775;51.148;6.950;2023-07-24T00:52:34;1.65;;;1.00;;
65187;SDS011;51775;51.148;6.950;2023-07-24T00:55:00;0.85;;;0.80;;
65187;SDS011;51775;51.148;6.950;2023-07-24T00:57:25;1.60;;;1.00;;
65187;SDS011;51775;51.148;6.950;2023-07-24T00:59:51;1.00;;;0.80;;
65187;SDS011;51775;51.148;6.950;2023-07-24T01:02:16;1.60;;;0.98;;
65187;SDS011;51775;51.148;6.950;2023-07-24T01:04:41;1.50;;;1.00;;
65187;SDS011;51775;51.148;6.950;2023-07-24T01:07:07;1.08;;;0.80;;
65187;SDS011;51775;51.148;6.950;2023-07-24T01:09:32;1.15;;;0.80;;
65187;SDS011;51775;51.148;6.950;2023-07-24T01:12:02;1.38;;;0.90;;
65187;SDS011;51775;51.148;6.950;2023-07-24T01:17:03;1.27;;;0.90;;
65187;SDS011;51775;51.148;6.950;2023-07-24T01:27:40;1.33;;;0.90;;
65187;SDS011;51775;51.148;6.950;2023-07-24T01:30:10;1.17;;;0.90;;
65187;SDS011;51775;51.148;6.950;2023-07-24T01:32:36;1.23;;;0.82;;
65187;SDS011;51775;51.148;6.950;2023-07-24T01:35:02;1.58;;;1.10;;
65187;SDS011;51775;51.148;6.950;2023-07-24T01:37:28;1.30;;;0.93;;
65187;SDS011;51775;51.148;6.950;2023-07-24T01:39:54;1.88;;;0.90;;
65187;SDS011;51775;51.148;6.950;2023-07-24T01:42:21;1.75;;;0.90;;
65187;SDS011;51775;51.148;6.950;2023-07-24T01:44:55;1.45;;;0.90;;
65187;SDS011;51775;51.148;6.950;2023-07-24T01:47:21;1.25;;;0.90;;
65187;SDS011;51775;51.148;6.950;2023-07-24T01:49:47;1.58;;;0.95;;
65187;SDS011;51775;51.148;6.950;2023-07-24T01:52:12;1.73;;;1.02;;
65187;SDS011;51775;51.148;6.950;2023-07-24T01:54:38;1.48;;;1.00;;
65187;SDS011;51775;51.148;6.950;2023-07-24T01:57:03;1.38;;;1.00;;
65187;SDS011;51775;51.148;6.950;2023-07-24T01:59:28;1.58;;;1.00;;
65187;SDS011;51775;51.148;6.950;2023-07-24T02:01:54;1.30;;;0.90;;
65187;SDS011;51775;51.148;6.950;2023-07-24T02:04:19;1.77;;;1.10;;
65187;SDS011;51775;51.148;6.950;2023-07-24T02:06:44;1.60;;;0.90;;
65187;SDS011;51775;51.148;6.950;2023-07-24T02:09:10;1.50;;;1.00;;
65187;SDS011;51775;51.148;6.950;2023-07-24T02:11:35;1.40;;;1.00;;
65187;SDS011;51775;51.148;6.950;2023-07-24T02:14:00;1.85;;;1.00;;
65187;SDS011;51775;51.148;6.950;2023-07-24T02:16:26;1.70;;;1.08;;
65187;SDS011;51775;51.148;6.950;2023-07-24T02:18:51;1.50;;;1.00;;
65187;SDS011;51775;51.148;6.950;2023-07-24T02:21:16;1.60;;;1.05;;
65187;SDS011;51775;51.148;6.950;2023-07-24T02:23:41;1.60;;;1.00;;
65187;SDS011;51775;51.148;6.950;2023-07-24T02:26:07;1.70;;;1.10;;
65187;SDS011;51775;51.148;6.950;2023-07-24T02:28:32;1.40;;;0.95;;
65187;SDS011;51775;51.148;6.950;2023-07-24T02:30:57;1.40;;;0.90;;
65187;SDS011;51775;51.148;6.950;2023-07-24T02:33:22;1.48;;;1.00;;
65187;SDS011;51775;51.148;6.950;2023-07-24T02:35:48;2.00;;;1.10;;
65187;SDS011;51775;51.148;6.950;2023-07-24T02:38:16;1.40;;;1.00;;
65187;SDS011;51775;51.148;6.950;2023-07-24T02:40:41;1.50;;;1.10;;
65187;SDS011;51775;51.148;6.950;2023-07-24T02:43:06;1.35;;;0.90;;
65187;SDS011;51775;51.148;6.950;2023-07-24T02:45:34;1.55;;;1.05;;
65187;SDS011;51775;51.148;6.950;2023-07-24T02:48:00;1.30;;;0.98;;
65187;SDS011;51775;51.148;6.950;2023-07-24T02:50:25;1.50;;;0.93;;
65187;SDS011;51775;51.148;6.950;2023-07-24T02:52:50;1.60;;;1.10;;
65187;SDS011;51775;51.148;6.950;2023-07-24T02:55:16;1.67;;;1.10;;
65187;SDS011;51775;51.148;6.950;2023-07-24T02:57:41;1.95;;;1.10;;
65187;SDS011;51775;51.148;6.950;2023-07-24T03:00:07;1.63;;;1.10;;
65187;SDS011;51775;51.148;6.950;2023-07-24T03:02:32;1.77;;;1.20;;
65187;SDS011;51775;51.148;6.950;2023-07-24T03:04:58;1.60;;;1.10;;
65187;SDS011;51775;51.148;6.950;2023-07-24T03:07:23;1.52;;;1.05;;
65187;SDS011;51775;51.148;6.950;2023-07-24T03:09:50;1.52;;;1.08;;
65187;SDS011;51775;51.148;6.950;2023-07-24T03:12:16;1.40;;;0.95;;
65187;SDS011;51775;51.148;6.950;2023-07-24T03:14:41;1.45;;;0.90;;
65187;SDS011;51775;51.148;6.950;2023-07-24T03:17:06;1.50;;;1.00;;
65187;SDS011;51775;51.148;6.950;2023-07-24T03:19:31;1.63;;;1.00;;
65187;SDS011;51775;51.148;6.950;2023-07-24T03:21:57;2.15;;;1.25;;
65187;SDS011;51775;51.148;6.950;2023-07-24T03:24:22;1.30;;;1.00;;
65187;SDS011;51775;51.148;6.950;2023-07-24T03:26:47;1.58;;;1.10;;
65187;SDS011;51775;51.148;6.950;2023-07-24T03:29:13;1.70;;;1.00;;
65187;SDS011;51775;51.148;6.950;2023-07-24T03:31:38;1.80;;;1.10;;
65187;SDS011;51775;51.148;6.950;2023-07-24T03:34:03;1.67;;;1.10;;
65187;SDS011;51775;51.148;6.950;2023-07-24T03:36:28;1.85;;;1.10;;
65187;SDS011;51775;51.148;6.950;2023-07-24T03:38:54;1.75;;;1.13;;
65187;SDS011;51775;51.148;6.950;2023-07-24T03:41:19;1.50;;;1.05;;
65187;SDS011;51775;51.148;6.950;2023-07-24T03:43:44;1.52;;;1.00;;
65187;SDS011;51775;51.148;6.950;2023-07-24T03:46:09;1.65;;;1.10;;
65187;SDS011;51775;51.148;6.950;2023-07-24T03:48:35;1.90;;;1.10;;
65187;SDS011;51775;51.148;6.950;2023-07-24T03:51:00;1.90;;;1.20;;
65187;SDS011;51775;51.148;6.950;2023-07-24T03:53:26;2.00;;;1.10;;
65187;SDS011;51775;51.148;6.950;2023-07-24T03:55:52;1.73;;;1.20;;
65187;SDS011;51775;51.148;6.950;2023-07-24T03:58:17;1.70;;;1.20;;
65187;SDS011;51775;51.148;6.950;2023-07-24T04:00:43;1.52;;;0.95;;
65187;SDS011;51775;51.148;6.950;2023-07-24T04:03:08;1.73;;;1.20;;
65187;SDS011;51775;51.148;6.950;2023-07-24T04:05:34;2.10;;;1.20;;
65187;SDS011;51775;51.148;6.950;2023-07-24T04:08:00;1.60;;;1.02;;
65187;SDS011;51775;51.148;6.950;2023-07-24T04:10:25;1.85;;;1.10;;
65187;SDS011;51775;51.148;6.950;2023-07-24T04:12:51;1.67;;;1.27;;
65187;SDS011;51775;51.148;6.950;2023-07-24T04:15:17;2.17;;;1.20;;
65187;SDS011;51775;51.148;6.950;2023-07-24T04:17:42;2.42;;;1.30;;
65187;SDS011;51775;51.148;6.950;2023-07-24T04:20:08;1.77;;;1.13;;
65187;SDS011;51775;51.148;6.950;2023-07-24T04:22:33;1.60;;;1.10;;
65187;SDS011;51775;51.148;6.950;2023-07-24T04:24:59;1.70;;;1.10;;
65187;SDS011;51775;51.148;6.950;2023-07-24T04:27:24;1.65;;;1.10;;
65187;SDS011;51775;51.148;6.950;2023-07-24T04:29:49;1.95;;;1.23;;
65187;SDS011;51775;51.148;6.950;2023-07-24T04:32:14;1.63;;;1.10;;
65187;SDS011;51775;51.148;6.950;2023-07-24T04:34:40;1.75;;;1.15;;
65187;SDS011;51775;51.148;6.950;2023-07-24T04:37:05;1.70;;;1.13;;
65187;SDS011;51775;51.148;6.950;2023-07-24T04:39:30;1.58;;;1.00;;
65187;SDS011;51775;51.148;6.950;2023-07-24T04:41:55;1.88;;;1.10;;
65187;SDS011;51775;51.148;6.950;2023-07-24T04:44:21;1.60;;;1.00;;
65187;SDS011;51775;51.148;6.950;2023-07-24T04:46:46;2.13;;;1.27;;
65187;SDS011;51775;51.148;6.950;2023-07-24T04:49:11;2.70;;;1.20;;
65187;SDS011;51775;51.148;6.950;2023-07-24T04:51:37;1.58;;;1.10;;
65187;SDS011;51775;51.148;6.950;2023-07-24T04:54:08;3.45;;;1.10;;
65187;SDS011;51775;51.148;6.950;2023-07-24T04:56:33;1.80;;;1.20;;
65187;SDS011;51775;51.148;6.950;2023-07-24T04:59:00;1.88;;;1.10;;
65187;SDS011;51775;51.148;6.950;2023-07-24T05:01:25;1.85;;;1.30;;
65187;SDS011;51775;51.148;6.950;2023-07-24T05:03:50;2.10;;;1.30;;
65187;SDS011;51775;51.148;6.950;2023-07-24T05:06:16;2.00;;;1.10;;
65187;SDS011;51775;51.148;6.950;2023-07-24T05:08:41;1.98;;;1.30;;
65187;SDS011;51775;51.148;6.950;2023-07-24T05:11:06;2.05;;;1.17;;
65187;SDS011;51775;51.148;6.950;2023-07-24T05:13:31;1.63;;;1.20;;
65187;SDS011;51775;51.148;6.950;2023-07-24T05:15:57;2.10;;;1.25;;
65187;SDS011;51775;51.148;6.950;2023-07-24T05:18:22;3.10;;;1.08;;
65187;SDS011;51775;51.148;6.950;2023-07-24T05:20:48;2.00;;;1.27;;
65187;SDS011;51775;51.148;6.950;2023-07-24T05:23:15;2.10;;;1.27;;
65187;SDS011;51775;51.148;6.950;2023-07-24T05:25:40;1.92;;;1.30;;
65187;SDS011;51775;51.148;6.950;2023-07-24T05:28:05;2.10;;;1.33;;
65187;SDS011;51775;51.148;6.950;2023-07-24T05:30:32;1.70;;;1.10;;
65187;SDS011;51775;51.148;6.950;2023-07-24T05:32:57;1.98;;;1.30;;
65187;SDS011;51775;51.148;6.950;2023-07-24T05:35:23;2.40;;;1.40;;
65187;SDS011;51775;51.148;6.950;2023-07-24T05:37:48;2.20;;;1.50;;
65187;SDS011;51775;51.148;6.950;2023-07-24T05:40:13;2.08;;;1.30;;
65187;SDS011;51775;51.148;6.950;2023-07-24T05:42:39;1.95;;;1.30;;
65187;SDS011;51775;51.148;6.950;2023-07-24T05:45:05;3.00;;;1.50;;
65187;SDS011;51775;51.148;6.950;2023-07-24T05:47:31;1.80;;;1.20;;
65187;SDS011;51775;51.148;6.950;2023-07-24T05:49:56;2.38;;;1.35;;
65187;SDS011;51775;51.148;6.950;2023-07-24T05:52:21;2.22;;;1.38;;
65187;SDS011;51775;51.148;6.950;2023-07-24T05:54:47;2.88;;;1.30;;
65187;SDS011;51775;51.148;6.950;2023-07-24T05:57:12;2.38;;;1.30;;
65187;SDS011;51775;51.148;6.950;2023-07-24T05:59:37;2.33;;;1.40;;
65187;SDS011;51775;51.148;6.950;2023-07-24T06:02:03;2.38;;;1.30;;
65187;SDS011;51775;51.148;6.950;2023-07-24T06:04:28;2.03;;;1.20;;
65187;SDS011;51775;51.148;6.950;2023-07-24T06:06:53;2.30;;;1.27;;
65187;SDS011;51775;51.148;6.950;2023-07-24T06:09:19;2.45;;;1.30;;
65187;SDS011;51775;51.148;6.950;2023-07-24T06:11:44;2.53;;;1.30;;
65187;SDS011;51775;51.148;6.950;2023-07-24T06:14:09;2.95;;;1.40;;
65187;SDS011;51775;51.148;6.950;2023-07-24T06:16:35;3.17;;;1.40;;
65187;SDS011;51775;51.148;6.950;2023-07-24T06:19:00;2.00;;;1.27;;
65187;SDS011;51775;51.148;6.950;2023-07-24T06:21:25;2.00;;;1.30;;
65187;SDS011;51775;51.148;6.950;2023-07-24T06:23:50;2.08;;;1.20;;
65187;SDS011;51775;51.148;6.950;2023-07-24T06:26:16;2.40;;;1.38;;
65187;SDS011;51775;51.148;6.950;2023-07-24T06:28:41;2.15;;;1.25;;
65187;SDS011;51775;51.148;6.950;2023-07-24T06:31:07;2.22;;;1.30;;
65187;SDS011;51775;51.148;6.950;2023-07-24T06:33:33;2.10;;;1.30;;
65187;SDS011;51775;51.148;6.950;2023-07-24T06:35:58;2.28;;;1.40;;
65187;SDS011;51775;51.148;6.950;2023-07-24T06:38:23;2.00;;;1.30;;
65187;SDS011;51775;51.148;6.950;2023-07-24T06:40:48;2.00;;;1.30;;
65187;SDS011;51775;51.148;6.950;2023-07-24T06:43:14;1.77;;;1.15;;
65187;SDS011;51775;51.148;6.950;2023-07-24T06:45:39;2.35;;;1.40;;
65187;SDS011;51775;51.148;6.950;2023-07-24T06:48:04;2.38;;;1.55;;
65187;SDS011;51775;51.148;6.950;2023-07-24T06:50:30;2.78;;;1.50;;
65187;SDS011;51775;51.148;6.950;2023-07-24T06:52:55;2.10;;;1.25;;
65187;SDS011;51775;51.148;6.950;2023-07-24T06:55:20;4.90;;;1.52;;
65187;SDS011;51775;51.148;6.950;2023-07-24T06:57:46;2.20;;;1.30;;
65187;SDS011;51775;51.148;6.950;2023-07-24T07:00:11;2.60;;;1.70;;
65187;SDS011;51775;51.148;6.950;2023-07-24T07:02:37;2.72;;;1.40;;
65187;SDS011;51775;51.148;6.950;2023-07-24T07:05:03;2.13;;;1.40;;
65187;SDS011;51775;51.148;6.950;2023-07-24T07:07:29;2.22;;;1.40;;
65187;SDS011;51775;51.148;6.950;2023-07-24T07:09:54;2.40;;;1.40;;
65187;SDS011;51775;51.148;6.950;2023-07-24T07:12:20;4.25;;;1.20;;
65187;SDS011;51775;51.148;6.950;2023-07-24T07:14:45;2.13;;;1.27;;
65187;SDS011;51775;51.148;6.950;2023-07-24T07:17:10;2.33;;;1.38;;
65187;SDS011;51775;51.148;6.950;2023-07-24T07:19:36;2.67;;;1.25;;
65187;SDS011;51775;51.148;6.950;2023-07-24T07:22:01;2.05;;;1.30;;
65187;SDS011;51775;51.148;6.950;2023-07-24T07:24:26;2.10;;;1.38;;
65187;SDS011;51775;51.148;6.950;2023-07-24T07:26:52;2.67;;;1.30;;
65187;SDS011;51775;51.148;6.950;2023-07-24T07:29:17;1.77;;;1.23;;
65187;SDS011;51775;51.148;6.950;2023-07-24T07:31:42;2.10;;;1.30;;
65187;SDS011;51775;51.148;6.950;2023-07-24T07:34:08;1.80;;;1.20;;
65187;SDS011;51775;51.148;6.950;2023-07-24T07:36:33;2.65;;;1.50;;
65187;SDS011;51775;51.148;6.950;2023-07-24T07:38:58;3.13;;;1.30;;
65187;SDS011;51775;51.148;6.950;2023-07-24T07:41:23;2.17;;;1.25;;
65187;SDS011;51775;51.148;6.950;2023-07-24T07:43:49;2.17;;;1.30;;
65187;SDS011;51775;51.148;6.950;2023-07-24T07:46:14;1.73;;;1.10;;
65187;SDS011;51775;51.148;6.950;2023-07-24T07:48:39;1.77;;;1.13;;
65187;SDS011;51775;51.148;6.950;2023-07-24T07:51:05;2.17;;;1.33;;
65187;SDS011;51775;51.148;6.950;2023-07-24T07:53:30;2.28;;;1.20;;
65187;SDS011;51775;51.148;6.950;2023-07-24T07:55:58;2.85;;;1.27;;
65187;SDS011;51775;51.148;6.950;2023-07-24T07:58:24;2.13;;;1.30;;
65187;SDS011;51775;51.148;6.950;2023-07-24T08:00:50;2.40;;;1.38;;
65187;SDS011;51775;51.148;6.950;2023-07-24T08:03:15;2.00;;;1.30;;
65187;SDS011;51775;51.148;6.950;2023-07-24T08:05:40;2.30;;;1.30;;
65187;SDS011;51775;51.148;6.950;2023-07-24T08:08:06;2.10;;;1.17;;
65187;SDS011;51775;51.148;6.950;2023-07-24T08:10:31;2.13;;;1.30;;
65187;SDS011;51775;51.148;6.950;2023-07-24T08:12:56;2.00;;;1.30;;
65187;SDS011;51775;51.148;6.950;2023-07-24T08:15:21;2.00;;;1.20;;
65187;SDS011;51775;51.148;6.950;2023-07-24T08:17:47;2.50;;;1.30;;
65187;SDS011;51775;51.148;6.950;2023-07-24T08:20:12;1.92;;;1.20;;
65187;SDS011;51775;51.148;6.950;2023-07-24T08:22:37;2.03;;;1.20;;
65187;SDS011;51775;51.148;6.950;2023-07-24T08:25:03;1.90;;;1.23;;
65187;SDS011;51775;51.148;6.950;2023-07-24T08:27:28;1.83;;;1.20;;
65187;SDS011;51775;51.148;6.950;2023-07-24T08:29:54;2.42;;;1.30;;
65187;SDS011;51775;51.148;6.950;2023-07-24T08:32:20;2.13;;;1.30;;
65187;SDS011;51775;51.148;6.950;2023-07-24T08:34:45;1.90;;;1.20;;
65187;SDS011;51775;51.148;6.950;2023-07-24T08:37:13;2.17;;;1.35;;
65187;SDS011;51775;51.148;6.950;2023-07-24T08:39:39;2.17;;;1.33;;
65187;SDS011;51775;51.148;6.950;2023-07-24T08:42:10;1.90;;;1.30;;
65187;SDS011;51775;51.148;6.950;2023-07-24T08:44:36;2.38;;;1.40;;
65187;SDS011;51775;51.148;6.950;2023-07-24T08:47:02;2.10;;;1.20;;
65187;SDS011;51775;51.148;6.950;2023-07-24T08:49:29;1.98;;;1.20;;
65187;SDS011;51775;51.148;6.950;2023-07-24T08:51:55;2.22;;;1.30;;
65187;SDS011;51775;51.148;6.950;2023-07-24T08:54:21;2.20;;;1.35;;
65187;SDS011;51775;51.148;6.950;2023-07-24T08:56:47;2.30;;;1.30;;
65187;SDS011;51775;51.148;6.950;2023-07-24T08:59:13;2.22;;;1.30;;
65187;SDS011;51775;51.148;6.950;2023-07-24T09:01:38;2.10;;;1.33;;
65187;SDS011;51775;51.148;6.950;2023-07-24T09:04:03;2.00;;;1.17;;
65187;SDS011;51775;51.148;6.950;2023-07-24T09:06:29;2.00;;;1.30;;
65187;SDS011;51775;51.148;6.950;2023-07-24T09:08:54;2.08;;;1.30;;
65187;SDS011;51775;51.148;6.950;2023-07-24T09:11:19;2.40;;;1.40;;
65187;SDS011;51775;51.148;6.950;2023-07-24T09:13:45;2.30;;;1.30;;
65187;SDS011;51775;51.148;6.950;2023-07-24T09:16:23;2.00;;;1.20;;
65187;SDS011;51775;51.148;6.950;2023-07-24T09:18:50;2.10;;;1.33;;
65187;SDS011;51775;51.148;6.950;2023-07-24T09:21:16;1.92;;;1.20;;
65187;SDS011;51775;51.148;6.950;2023-07-24T09:23:52;2.25;;;1.30;;
65187;SDS011;51775;51.148;6.950;2023-07-24T09:26:17;2.10;;;1.35;;
65187;SDS011;51775;51.148;6.950;2023-07-24T09:28:50;2.20;;;1.30;;
65187;SDS011;51775;51.148;6.950;2023-07-24T09:31:17;2.20;;;1.40;;
65187;SDS011;51775;51.148;6.950;2023-07-24T09:33:43;2.00;;;1.38;;
65187;SDS011;51775;51.148;6.950;2023-07-24T09:36:08;2.30;;;1.40;;
65187;SDS011;51775;51.148;6.950;2023-07-24T09:38:33;1.95;;;1.20;;
65187;SDS011;51775;51.148;6.950;2023-07-24T09:41:01;3.67;;;1.40;;
65187;SDS011;51775;51.148;6.950;2023-07-24T09:43:27;1.92;;;1.30;;
65187;SDS011;51775;51.148;6.950;2023-07-24T09:45:54;2.42;;;1.30;;
65187;SDS011;51775;51.148;6.950;2023-07-24T09:48:21;2.20;;;1.40;;
65187;SDS011;51775;51.148;6.950;2023-07-24T09:50:52;4.85;;;1.30;;
65187;SDS011;51775;51.148;6.950;2023-07-24T09:56:05;2.22;;;1.40;;
65187;SDS011;51775;51.148;6.950;2023-07-24T09:58:35;2.80;;;1.23;;
65187;SDS011;51775;51.148;6.950;2023-07-24T10:01:05;2.13;;;1.27;;
65187;SDS011;51775;51.148;6.950;2023-07-24T10:03:34;4.65;;;1.50;;
65187;SDS011;51775;51.148;6.950;2023-07-24T10:06:00;2.33;;;1.30;;
65187;SDS011;51775;51.148;6.950;2023-07-24T10:08:26;2.22;;;1.20;;
65187;SDS011;51775;51.148;6.950;2023-07-24T10:10:52;2.00;;;1.20;;
65187;SDS011;51775;51.148;6.950;2023-07-24T10:13:17;1.90;;;1.30;;
65187;SDS011;51775;51.148;6.950;2023-07-24T10:15:45;2.00;;;1.30;;
65187;SDS011;51775;51.148;6.950;2023-07-24T10:18:12;2.15;;;1.20;;
65187;SDS011;51775;51.148;6.950;2023-07-24T10:20:39;2.28;;;1.30;;
65187;SDS011;51775;51.148;6.950;2023-07-24T10:23:06;2.28;;;1.30;;
65187;SDS011;51775;51.148;6.950;2023-07-24T10:25:34;2.28;;;1.20;;
65187;SDS011;51775;51.148;6.950;2023-07-24T10:28:04;2.13;;;1.20;;
65187;SDS011;51775;51.148;6.950;2023-07-24T10:30:30;3.33;;;1.45;;
65187;SDS011;51775;51.148;6.950;2023-07-24T10:33:03;2.08;;;1.20;;
65187;SDS011;51775;51.148;6.950;2023-07-24T10:35:36;2.10;;;1.30;;
65187;SDS011;51775;51.148;6.950;2023-07-24T10:38:07;1.73;;;1.17;;
65187;SDS011;51775;51.148;6.950;2023-07-24T10:40:33;1.80;;;1.30;;
65187;SDS011;51775;51.148;6.950;2023-07-24T10:43:05;1.83;;;1.25;;
65187;SDS011;51775;51.148;6.950;2023-07-24T10:45:41;2.22;;;1.25;;
65187;SDS011;51775;51.148;6.950;2023-07-24T10:48:17;2.50;;;1.30;;
65187;SDS011;51775;51.148;6.950;2023-07-24T10:50:44;1.90;;;1.20;;
65187;SDS011;51775;51.148;6.950;2023-07-24T10:53:14;1.98;;;1.25;;
65187;SDS011;51775;51.148;6.950;2023-07-24T10:55:44;1.92;;;1.10;;
65187;SDS011;51775;51.148;6.950;2023-07-24T10:58:11;1.90;;;1.20;;
65187;SDS011;51775;51.148;6.950;2023-07-24T11:00:38;2.00;;;1.20;;
65187;SDS011;51775;51.148;6.950;2023-07-24T11:03:10;2.10;;;1.30;;
65187;SDS011;51775;51.148;6.950;2023-07-24T11:05:40;2.10;;;1.33;;
65187;SDS011;51775;51.148;6.950;2023-07-24T11:08:10;1.85;;;1.15;;
65187;SDS011;51775;51.148;6.950;2023-07-24T11:10:36;1.73;;;1.02;;
65187;SDS011;51775;51.148;6.950;2023-07-24T11:13:01;2.40;;;1.23;;
65187;SDS011;51775;51.148;6.950;2023-07-24T11:15:26;2.28;;;1.38;;
65187;SDS011;51775;51.148;6.950;2023-07-24T11:17:53;1.80;;;1.20;;
65187;SDS011;51775;51.148;6.950;2023-07-24T11:20:19;1.77;;;1.10;;
65187;SDS011;51775;51.148;6.950;2023-07-24T11:22:44;2.00;;;1.35;;
65187;SDS011;51775;51.148;6.950;2023-07-24T11:25:10;2.20;;;1.20;;
65187;SDS011;51775;51.148;6.950;2023-07-24T11:27:42;2.10;;;1.30;;
65187;SDS011;51775;51.148;6.950;2023-07-24T11:30:08;1.80;;;1.20;;
65187;SDS011;51775;51.148;6.950;2023-07-24T11:32:34;1.92;;;1.20;;
65187;SDS011;51775;51.148;6.950;2023-07-24T11:35:00;2.22;;;1.40;;
65187;SDS011;51775;51.148;6.950;2023-07-24T11:37:25;1.92;;;1.15;;
65187;SDS011;51775;51.148;6.950;2023-07-24T11:39:56;1.90;;;1.20;;
65187;SDS011;51775;51.148;6.950;2023-07-24T11:42:24;2.22;;;1.30;;
65187;SDS011;51775;51.148;6.950;2023-07-24T11:44:51;1.75;;;1.00;;
65187;SDS011;51775;51.148;6.950;2023-07-24T11:47:16;2.45;;;1.30;;
65187;SDS011;51775;51.148;6.950;2023-07-24T11:49:42;1.60;;;1.10;;
65187;SDS011;51775;51.148;6.950;2023-07-24T11:52:07;2.10;;;1.20;;
65187;SDS011;51775;51.148;6.950;2023-07-24T11:54:35;1.92;;;1.13;;
65187;SDS011;51775;51.148;6.950;2023-07-24T11:57:01;2.75;;;1.15;;
65187;SDS011;51775;51.148;6.950;2023-07-24T11:59:26;1.80;;;1.20;;
65187;SDS011;51775;51.148;6.950;2023-07-24T12:01:52;1.90;;;1.20;;
65187;SDS011;51775;51.148;6.950;2023-07-24T12:04:17;1.92;;;1.10;;
65187;SDS011;51775;51.148;6.950;2023-07-24T12:06:43;1.55;;;1.10;;
65187;SDS011;51775;51.148;6.950;2023-07-24T12:09:10;2.22;;;1.20;;
65187;SDS011;51775;51.148;6.950;2023-07-24T12:11:42;1.88;;;1.08;;
65187;SDS011;51775;51.148;6.950;2023-07-24T12:14:08;1.60;;;1.00;;
65187;SDS011;51775;51.148;6.950;2023-07-24T12:16:35;1.98;;;1.30;;
65187;SDS011;51775;51.148;6.950;2023-07-24T12:19:00;1.90;;;1.02;;
65187;SDS011;51775;51.148;6.950;2023-07-24T12:21:26;1.70;;;0.90;;
65187;SDS011;51775;51.148;6.950;2023-07-24T12:23:51;1.63;;;0.93;;
65187;SDS011;51775;51.148;6.950;2023-07-24T12:26:16;1.92;;;1.10;;
65187;SDS011;51775;51.148;6.950;2023-07-24T12:28:42;1.80;;;1.10;;
65187;SDS011;51775;51.148;6.950;2023-07-24T12:31:07;1.95;;;1.10;;
65187;SDS011;51775;51.148;6.950;2023-07-24T12:33:32;1.73;;;1.02;;
65187;SDS011;51775;51.148;6.950;2023-07-24T12:35:57;1.50;;;0.90;;
65187;SDS011;51775;51.148;6.950;2023-07-24T12:38:23;1.50;;;1.10;;
65187;SDS011;51775;51.148;6.950;2023-07-24T12:40:48;1.67;;;1.08;;
65187;SDS011;51775;51.148;6.950;2023-07-24T12:43:14;1.40;;;0.93;;
65187;SDS011;51775;51.148;6.950;2023-07-24T12:45:40;1.80;;;1.00;;
65187;SDS011;51775;51.148;6.950;2023-07-24T12:48:05;1.60;;;0.90;;
65187;SDS011;51775;51.148;6.950;2023-07-24T12:50:31;1.83;;;1.10;;
65187;SDS011;51775;51.148;6.950;2023-07-24T12:52:56;2.95;;;1.10;;
65187;SDS011;51775;51.148;6.950;2023-07-24T12:55:21;1.33;;;0.90;;
65187;SDS011;51775;51.148;6.950;2023-07-24T12:57:46;1.75;;;1.10;;
65187;SDS011;51775;51.148;6.950;2023-07-24T13:00:12;2.25;;;1.10;;
65187;SDS011;51775;51.148;6.950;2023-07-24T13:02:37;1.60;;;1.08;;
65187;SDS011;51775;51.148;6.950;2023-07-24T13:05:02;1.85;;;0.90;;
65187;SDS011;51775;51.148;6.950;2023-07-24T13:07:28;1.30;;;0.90;;
65187;SDS011;51775;51.148;6.950;2023-07-24T13:09:53;1.48;;;0.90;;
65187;SDS011;51775;51.148;6.950;2023-07-24T13:12:19;1.40;;;0.90;;
65187;SDS011;51775;51.148;6.950;2023-07-24T13:14:44;1.40;;;0.80;;
65187;SDS011;51775;51.148;6.950;2023-07-24T13:17:09;1.25;;;0.77;;
65187;SDS011;51775;51.148;6.950;2023-07-24T13:19:35;1.10;;;0.80;;
65187;SDS011;51775;51.148;6.950;2023-07-24T13:22:00;1.30;;;0.80;;
65187;SDS011;51775;51.148;6.950;2023-07-24T13:24:25;1.52;;;0.90;;
65187;SDS011;51775;51.148;6.950;2023-07-24T13:26:51;1.38;;;0.85;;
65187;SDS011;51775;51.148;6.950;2023-07-24T13:29:16;1.48;;;0.90;;
65187;SDS011;51775;51.148;6.950;2023-07-24T13:31:41;1.88;;;0.90;;
65187;SDS011;51775;51.148;6.950;2023-07-24T13:34:07;1.50;;;0.90;;
65187;SDS011;51775;51.148;6.950;2023-07-24T13:36:32;1.30;;;0.80;;
65187;SDS011;51775;51.148;6.950;2023-07-24T13:38:57;1.20;;;0.70;;
65187;SDS011;51775;51.148;6.950;2023-07-24T13:41:23;1.23;;;0.80;;
65187;SDS011;51775;51.148;6.950;2023-07-24T13:43:48;1.48;;;0.80;;
65187;SDS011;51775;51.148;6.950;2023-07-24T13:46:13;1.38;;;0.88;;
65187;SDS011;51775;51.148;6.950;2023-07-24T13:48:39;1.20;;;0.80;;
65187;SDS011;51775;51.148;6.950;2023-07-24T13:51:04;1.80;;;1.00;;
65187;SDS011;51775;51.148;6.950;2023-07-24T13:53:29;1.40;;;0.80;;
65187;SDS011;51775;51.148;6.950;2023-07-24T13:55:55;2.28;;;0.90;;
65187;SDS011;51775;51.148;6.950;2023-07-24T13:58:20;1.13;;;0.70;;
65187;SDS011;51775;51.148;6.950;2023-07-24T14:00:45;1.35;;;0.80;;
65187;SDS011;51775;51.148;6.950;2023-07-24T14:03:11;1.60;;;0.88;;
65187;SDS011;51775;51.148;6.950;2023-07-24T14:05:36;1.20;;;0.80;;
65187;SDS011;51775;51.148;6.950;2023-07-24T14:08:02;1.52;;;0.90;;
65187;SDS011;51775;51.148;6.950;2023-07-24T14:10:27;1.35;;;0.90;;
65187;SDS011;51775;51.148;6.950;2023-07-24T14:12:54;1.38;;;0.88;;
65187;SDS011;51775;51.148;6.950;2023-07-24T14:15:20;1.30;;;0.70;;
65187;SDS011;51775;51.148;6.950;2023-07-24T14:17:46;2.55;;;0.90;;
65187;SDS011;51775;51.148;6.950;2023-07-24T14:20:12;1.40;;;0.70;;
65187;SDS011;51775;51.148;6.950;2023-07-24T14:22:38;1.10;;;0.80;;
65187;SDS011;51775;51.148;6.950;2023-07-24T14:25:08;1.48;;;0.90;;
65187;SDS011;51775;51.148;6.950;2023-07-24T14:27:33;1.38;;;0.80;;
65187;SDS011;51775;51.148;6.950;2023-07-24T14:29:59;1.02;;;0.70;;
65187;SDS011;51775;51.148;6.950;2023-07-24T14:32:25;0.98;;;0.70;;
65187;SDS011;51775;51.148;6.950;2023-07-24T14:34:51;1.25;;;0.73;;
65187;SDS011;51775;51.148;6.950;2023-07-24T14:37:18;1.60;;;0.68;;
65187;SDS011;51775;51.148;6.950;2023-07-24T14:39:44;1.52;;;0.88;;
65187;SDS011;51775;51.148;6.950;2023-07-24T14:42:10;1.27;;;0.80;;
65187;SDS011;51775;51.148;6.950;2023-07-24T14:44:36;1.15;;;0.73;;
65187;SDS011;51775;51.148;6.950;2023-07-24T14:47:01;1.30;;;0.80;;
65187;SDS011;51775;51.148;6.950;2023-07-24T14:49:27;1.10;;;0.80;;
65187;SDS011;51775;51.148;6.950;2023-07-24T14:51:52;1.27;;;0.80;;
65187;SDS011;51775;51.148;6.950;2023-07-24T14:54:17;1.40;;;0.80;;